Time;durP1;ratioP1;P1;durP2;ratioP2;P2;SDS_P1;SDS_P2;PMS_P1;PMS_P2;Temp;Humidity;BMP_temperature;BMP_pressure;BME280_temperature;BME280_humidity;BME280_pressure;Samples;Min_cycle;Max_cycle;Signal;HPM_P1;HPM_P2
2023/12/05 00:02:19;;;;;;;18.67;8.18;;;;;;;-0.68;100.00;92870.78;5042427;28;20034;-68
2023/12/05 00:04:46;;;;;;;20.00;8.75;;;;;;;-0.79;100.00;92855.66;5048132;28;20041;-67
2023/12/05 00:07:13;;;;;;;20.05;9.23;;;;;;;-0.75;100.00;92867.25;5048620;28;20059;-68
2023/12/05 00:09:40;;;;;;;24.42;9.65;;;;;;;-0.77;100.00;92875.69;5047834;28;20053;-68
2023/12/05 00:12:08;;;;;;;24.77;9.65;;;;;;;-0.87;100.00;92871.72;5048698;28;20662;-68
2023/12/05 00:14:35;;;;;;;23.30;9.77;;;;;;;-0.86;100.00;92864.44;5047366;28;20577;-68
2023/12/05 00:17:01;;;;;;;21.90;9.13;;;;;;;-0.78;100.00;92859.91;5048689;28;20051;-68
2023/12/05 00:19:28;;;;;;;25.27;10.45;;;;;;;-0.81;100.00;92867.56;5047736;28;20047;-65
2023/12/05 00:21:55;;;;;;;24.50;10.02;;;;;;;-0.78;100.00;92863.38;5047023;28;20049;-69
2023/12/05 00:24:22;;;;;;;24.67;10.73;;;;;;;-0.65;100.00;92864.66;5047095;28;20145;-69
2023/12/05 00:26:49;;;;;;;26.88;11.30;;;;;;;-0.73;100.00;92859.56;5047287;28;20797;-68
2023/12/05 00:29:17;;;;;;;24.23;10.20;;;;;;;-0.74;100.00;92866.88;5047892;28;20045;-67
2023/12/05 00:31:44;;;;;;;27.63;11.05;;;;;;;-0.68;100.00;92861.94;5047630;28;20049;-67
2023/12/05 00:34:11;;;;;;;27.05;10.63;;;;;;;-0.76;100.00;92852.25;5048296;28;20052;-68
2023/12/05 00:36:38;;;;;;;24.27;10.02;;;;;;;-0.75;100.00;92857.22;5046310;28;20055;-68
2023/12/05 00:39:05;;;;;;;24.00;10.50;;;;;;;-0.70;100.00;92859.59;5050003;28;20041;-69
2023/12/05 00:41:31;;;;;;;23.35;9.50;;;;;;;-0.83;100.00;92859.06;5051582;28;20516;-68
2023/12/05 00:43:58;;;;;;;25.17;10.40;;;;;;;-0.88;100.00;92866.75;5052265;28;20437;-68
2023/12/05 00:46:26;;;;;;;23.67;10.43;;;;;;;-0.81;100.00;92867.56;5051468;28;20045;-68
2023/12/05 00:48:52;;;;;;;24.23;10.35;;;;;;;-0.82;100.00;92867.94;5052197;28;20413;-67
2023/12/05 00:51:20;;;;;;;24.20;9.70;;;;;;;-0.71;100.00;92871.50;5051097;28;20037;-68
2023/12/05 00:53:47;;;;;;;30.70;12.80;;;;;;;-0.78;100.00;92863.38;5051255;28;20037;-69
2023/12/05 00:56:14;;;;;;;23.15;10.45;;;;;;;-0.85;100.00;92864.06;5052087;28;20056;-68
2023/12/05 00:58:41;;;;;;;25.67;10.90;;;;;;;-0.88;100.00;92864.81;5051058;28;20044;-68
2023/12/05 01:01:08;;;;;;;24.98;10.98;;;;;;;-0.90;100.00;92871.72;5051734;28;20090;-68
2023/12/05 01:03:35;;;;;;;24.58;10.57;;;;;;;-0.85;100.00;92871.38;5051283;28;20086;-68
2023/12/05 01:06:02;;;;;;;26.58;10.38;;;;;;;-0.90;100.00;92867.09;5050733;28;20037;-68
2023/12/05 01:08:29;;;;;;;27.60;10.82;;;;;;;-0.97;100.00;92877.78;5051343;28;20059;-67
2023/12/05 01:10:56;;;;;;;27.35;10.98;;;;;;;-0.97;100.00;92887.78;5048413;28;20063;-68
2023/12/05 01:13:24;;;;;;;27.48;11.02;;;;;;;-0.95;100.00;92890.88;5048371;28;20041;-67
2023/12/05 01:15:51;;;;;;;25.95;10.40;;;;;;;-0.97;100.00;92885.84;5051138;28;20056;-68
2023/12/05 01:18:18;;;;;;;29.95;11.88;;;;;;;-0.91;100.00;92892.47;5051481;28;20562;-67
2023/12/05 01:20:45;;;;;;;24.45;11.18;;;;;;;-0.88;100.00;92885.59;5050828;28;20082;-67
2023/12/05 01:23:12;;;;;;;45.83;18.45;;;;;;;-0.78;100.00;92894.94;5051496;28;20402;-68
2023/12/05 01:25:39;;;;;;;27.33;11.02;;;;;;;-0.84;100.00;92889.09;5050679;28;20070;-67
2023/12/05 01:28:06;;;;;;;25.83;10.90;;;;;;;-0.73;100.00;92891.91;5033963;28;20056;-69
2023/12/05 01:30:33;;;;;;;25.27;9.13;;;;;;;-0.81;100.00;92896.44;5050429;28;20433;-68
2023/12/05 01:33:00;;;;;;;23.95;9.88;;;;;;;-0.85;100.00;92901.75;5033580;28;20033;-67
2023/12/05 01:35:27;;;;;;;25.52;10.15;;;;;;;-0.83;100.00;92894.09;5048302;28;20045;-69
2023/12/05 01:37:53;;;;;;;23.20;9.88;;;;;;;-0.88;100.00;92888.28;5051262;28;20739;-68
2023/12/05 01:40:20;;;;;;;25.02;10.55;;;;;;;-0.91;100.00;92894.41;5051180;28;20036;-69
2023/12/05 01:42:47;;;;;;;24.77;10.52;;;;;;;-0.95;100.00;92888.19;5050784;28;20543;-68
2023/12/05 01:45:14;;;;;;;24.35;9.68;;;;;;;-1.01;100.00;92893.91;5050804;28;20284;-68
2023/12/05 01:47:41;;;;;;;26.08;10.15;;;;;;;-1.02;100.00;92897.75;5050637;28;20052;-69
2023/12/05 01:50:13;;;;;;;27.98;11.38;;;;;;;-1.01;100.00;92893.13;5050778;28;20051;-68
2023/12/05 01:52:46;;;;;;;27.50;11.05;;;;;;;-1.02;100.00;92889.66;5049085;28;20033;-68
2023/12/05 01:55:14;;;;;;;29.45;12.10;;;;;;;-0.97;100.00;92887.78;5037724;28;20048;-67
2023/12/05 01:57:42;;;;;;;31.60;12.05;;;;;;;-1.03;100.00;92887.34;5049738;28;20049;-67
2023/12/05 02:00:10;;;;;;;28.75;11.20;;;;;;;-1.02;100.00;92895.06;5049607;28;20033;-67
2023/12/05 02:02:36;;;;;;;30.30;12.52;;;;;;;-1.01;100.00;92898.50;5049433;28;20041;-68
2023/12/05 02:05:03;;;;;;;35.03;12.75;;;;;;;-0.97;100.00;92893.16;5050959;28;20041;-68
2023/12/05 02:07:31;;;;;;;33.05;13.00;;;;;;;-0.92;100.00;92890.16;5049835;28;20052;-68
2023/12/05 02:09:58;;;;;;;31.92;12.55;;;;;;;-0.93;100.00;92891.28;5050391;28;20041;-67
2023/12/05 02:12:25;;;;;;;36.20;13.48;;;;;;;-0.98;100.00;92876.25;5049952;28;20063;-67
2023/12/05 02:14:52;;;;;;;28.45;11.50;;;;;;;-0.84;100.00;92881.00;5050486;28;20041;-68
2023/12/05 02:17:32;;;;;;;29.20;11.38;;;;;;;-0.74;100.00;92883.03;5050096;28;20041;-67
2023/12/05 02:20:10;;;;;;;29.02;11.32;;;;;;;-0.60;100.00;92885.13;5049445;28;21561;-68
2023/12/05 02:23:01;;;;;;;27.65;10.43;;;;;;;-0.58;100.00;92882.03;5049261;28;20498;-68
2023/12/05 02:25:47;;;;;;;27.42;10.82;;;;;;;-0.55;100.00;92882.06;5049957;28;20064;-68
2023/12/05 02:28:15;;;;;;;26.30;11.27;;;;;;;-0.44;100.00;92892.97;5050620;28;20133;-68
2023/12/05 02:30:43;;;;;;;27.92;10.80;;;;;;;-0.42;100.00;92893.38;5049528;28;20041;-68
2023/12/05 02:33:10;;;;;;;25.35;10.35;;;;;;;-0.36;100.00;92885.69;5050136;28;20443;-67
2023/12/05 02:35:37;;;;;;;26.40;10.43;;;;;;;-0.36;100.00;92889.19;5048461;28;20052;-68
2023/12/05 02:38:18;;;;;;;25.90;10.20;;;;;;;-0.41;100.00;92897.59;5050103;28;20045;-68
2023/12/05 02:40:56;;;;;;;28.38;12.18;;;;;;;-0.43;100.00;92889.09;5049098;28;20430;-68
2023/12/05 02:43:47;;;;;;;23.85;10.30;;;;;;;-0.35;100.00;92887.25;5050250;28;20596;-67
2023/12/05 02:46:16;;;;;;;25.13;10.40;;;;;;;-0.36;100.00;92894.56;5042726;28;21274;-67
2023/12/05 02:48:44;;;;;;;24.10;9.90;;;;;;;-0.31;100.00;92898.84;5049273;28;20105;-67
2023/12/05 02:51:11;;;;;;;24.20;10.02;;;;;;;-0.31;100.00;92901.53;5050156;28;20044;-67
2023/12/05 02:53:38;;;;;;;22.17;9.43;;;;;;;-0.34;100.00;92904.97;5047610;28;20048;-67
2023/12/05 02:56:06;;;;;;;23.08;9.20;;;;;;;-0.28;100.00;92900.78;5049873;28;20044;-68
2023/12/05 02:58:33;;;;;;;24.25;9.80;;;;;;;-0.24;100.00;92904.31;5047937;28;20060;-68
2023/12/05 03:01:01;;;;;;;22.63;9.73;;;;;;;-0.30;100.00;92898.47;5047897;28;20041;-66
2023/12/05 03:03:28;;;;;;;24.00;10.40;;;;;;;-0.26;100.00;92907.38;5049596;28;20057;-67
2023/12/05 03:05:55;;;;;;;24.10;10.27;;;;;;;-0.27;100.00;92899.66;5050206;28;20041;-68
2023/12/05 03:08:22;;;;;;;22.98;9.90;;;;;;;-0.27;100.00;92891.56;5050332;28;20075;-67
2023/12/05 03:10:49;;;;;;;20.58;9.23;;;;;;;-0.22;100.00;92897.41;5049171;28;20768;-66
2023/12/05 03:13:25;;;;;;;20.60;9.35;;;;;;;-0.22;100.00;92896.63;5050031;28;20513;-67
2023/12/05 03:15:52;;;;;;;21.23;9.00;;;;;;;-0.23;100.00;92901.22;5050067;28;20484;-67
2023/12/05 03:18:19;;;;;;;21.70;9.30;;;;;;;-0.29;100.00;92900.00;5049879;28;20102;-67
2023/12/05 03:20:46;;;;;;;20.52;8.23;;;;;;;-0.24;100.00;92888.13;5049319;28;20076;-67
2023/12/05 03:23:16;;;;;;;18.63;8.80;;;;;;;-0.18;100.00;92889.34;5049933;28;20555;-66
2023/12/05 03:25:43;;;;;;;21.15;9.35;;;;;;;-0.17;100.00;92893.56;5049545;28;20057;-68
2023/12/05 03:28:10;;;;;;;21.98;9.23;;;;;;;-0.12;100.00;92895.94;5048480;28;20063;-67
2023/12/05 03:30:37;;;;;;;19.75;8.60;;;;;;;-0.10;100.00;92888.25;5049348;28;20381;-68
2023/12/05 03:33:03;;;;;;;19.38;8.60;;;;;;;-0.04;100.00;92889.47;5049743;28;20043;-68
2023/12/05 03:35:30;;;;;;;18.48;8.52;;;;;;;-0.05;100.00;92885.19;5049110;28;20101;-66
2023/12/05 03:37:57;;;;;;;21.75;9.32;;;;;;;-0.05;100.00;92887.91;5049113;28;20094;-67
2023/12/05 03:40:24;;;;;;;18.55;8.55;;;;;;;0.06;100.00;92887.19;5049362;28;20358;-66
2023/12/05 03:42:51;;;;;;;19.60;8.18;;;;;;;0.04;100.00;92882.19;5049558;28;20051;-67
2023/12/05 03:45:17;;;;;;;18.70;7.95;;;;;;;0.03;100.00;92888.72;5048033;28;20098;-68
2023/12/05 03:47:44;;;;;;;16.67;7.90;;;;;;;-0.05;100.00;92884.44;5047346;28;20044;-68
2023/12/05 03:50:11;;;;;;;18.37;8.10;;;;;;;-0.03;100.00;92884.81;5049556;28;20037;-67
2023/12/05 03:52:38;;;;;;;15.77;7.57;;;;;;;-0.15;100.00;92887.81;5048392;28;20067;-67
2023/12/05 03:55:05;;;;;;;18.42;8.80;;;;;;;-0.11;100.00;92892.09;5047676;28;20037;-66
2023/12/05 03:57:31;;;;;;;17.33;8.00;;;;;;;-0.15;100.00;92896.69;5047576;28;20056;-68
2023/12/05 03:59:58;;;;;;;17.65;8.52;;;;;;;-0.18;100.00;92900.13;5048994;28;20044;-68
2023/12/05 04:02:25;;;;;;;17.75;8.13;;;;;;;-0.17;100.00;92898.97;5046505;28;20639;-66
2023/12/05 04:04:52;;;;;;;17.88;8.00;;;;;;;-0.15;100.00;92902.06;5049234;28;20036;-67
2023/12/05 04:07:19;;;;;;;18.48;8.13;;;;;;;-0.21;100.00;92888.16;5048045;28;20041;-68
2023/12/05 04:09:46;;;;;;;19.83;8.38;;;;;;;-0.23;100.00;92882.34;5048420;28;20045;-67
2023/12/05 04:12:13;;;;;;;22.10;9.80;;;;;;;-0.24;100.00;92888.91;5048970;28;20049;-68
2023/12/05 04:14:40;;;;;;;20.52;8.73;;;;;;;-0.29;100.00;92891.94;5048955;28;20049;-68
2023/12/05 04:17:07;;;;;;;21.48;9.20;;;;;;;-0.26;100.00;92888.50;5047665;28;20406;-67
2023/12/05 04:19:34;;;;;;;25.05;10.27;;;;;;;-0.33;100.00;92888.44;5048498;28;20064;-67
2023/12/05 04:22:01;;;;;;;20.35;8.73;;;;;;;-0.23;100.00;92895.06;5048716;28;20049;-67
2023/12/05 04:24:27;;;;;;;20.70;7.28;;;;;;;-0.25;100.00;92898.13;5048704;28;20066;-67
2023/12/05 04:26:54;;;;;;;18.75;8.90;;;;;;;-0.15;100.00;92898.59;5048458;28;20045;-68
2023/12/05 04:29:21;;;;;;;19.65;8.40;;;;;;;-0.12;100.00;92897.84;5047676;28;20045;-67
2023/12/05 04:31:47;;;;;;;22.70;9.52;;;;;;;-0.14;100.00;92903.63;5041459;28;20045;-67
2023/12/05 04:34:14;;;;;;;27.20;10.00;;;;;;;-0.12;100.00;92897.84;5048366;28;20049;-68
2023/12/05 04:36:41;;;;;;;31.88;11.73;;;;;;;-0.13;100.00;92901.69;5047143;28;20041;-67
2023/12/05 04:39:08;;;;;;;28.35;11.68;;;;;;;-0.13;100.00;92899.78;5048546;28;20382;-68
2023/12/05 04:41:35;;;;;;;25.77;10.98;;;;;;;-0.04;100.00;92894.06;5048548;28;20417;-68
2023/12/05 04:44:04;;;;;;;25.63;11.30;;;;;;;-0.03;100.00;92907.16;5048767;28;20052;-68
2023/12/05 04:46:30;;;;;;;24.25;10.82;;;;;;;0.02;100.00;92911.47;5048413;28;20070;-67
2023/12/05 04:48:57;;;;;;;23.58;11.00;;;;;;;0.10;100.00;92906.88;5048509;28;20425;-67
2023/12/05 04:51:24;;;;;;;23.95;10.45;;;;;;;0.07;100.00;92897.63;5048104;28;20049;-67
2023/12/05 04:53:51;;;;;;;31.52;14.25;;;;;;;0.11;100.00;92908.44;5048416;28;20379;-66
2023/12/05 04:56:17;;;;;;;23.17;10.88;;;;;;;0.06;100.00;92909.56;5048739;28;20055;-68
2023/12/05 04:58:44;;;;;;;25.13;11.45;;;;;;;0.12;100.00;92909.97;5047693;28;20513;-68
2023/12/05 05:01:11;;;;;;;23.08;10.38;;;;;;;0.08;100.00;92901.88;5048251;28;20041;-68
2023/12/05 05:03:38;;;;;;;24.63;9.95;;;;;;;0.13;100.00;92908.84;5048035;28;20413;-67
2023/12/05 05:06:05;;;;;;;20.70;9.40;;;;;;;0.13;100.00;92903.44;5048512;28;20041;-67
2023/12/05 05:08:32;;;;;;;21.20;10.02;;;;;;;0.17;100.00;92896.91;5048174;28;20109;-67
2023/12/05 05:10:58;;;;;;;26.15;11.20;;;;;;;0.13;100.00;92895.34;5048667;28;20041;-67
2023/12/05 05:13:25;;;;;;;23.73;10.80;;;;;;;0.06;100.00;92895.28;5047629;28;20063;-67
2023/12/05 05:15:52;;;;;;;24.20;11.50;;;;;;;-0.02;100.00;92906.03;5048545;28;20045;-67
2023/12/05 05:18:19;;;;;;;19.27;8.60;;;;;;;0.03;100.00;92909.53;5048503;28;20044;-67
2023/12/05 05:20:45;;;;;;;20.90;8.75;;;;;;;0.05;100.00;92913.41;5048231;28;20041;-67
2023/12/05 05:23:12;;;;;;;21.27;9.30;;;;;;;-0.01;100.00;92910.28;5047852;28;20041;-67
2023/12/05 05:25:39;;;;;;;22.63;9.55;;;;;;;-0.08;100.00;92912.13;5049849;28;20047;-67
2023/12/05 05:28:09;;;;;;;22.13;9.57;;;;;;;-0.06;100.00;92913.31;5051766;28;20460;-66
2023/12/05 05:30:35;;;;;;;23.23;9.93;;;;;;;-0.03;100.00;92917.97;5049700;28;20405;-67
2023/12/05 05:33:02;;;;;;;21.27;10.02;;;;;;;-0.05;100.00;92912.16;5051765;28;20580;-66
2023/12/05 05:35:29;;;;;;;23.40;10.63;;;;;;;-0.05;100.00;92922.94;5051557;28;20051;-67
2023/12/05 05:37:56;;;;;;;23.33;10.93;;;;;;;-0.04;100.00;92921.03;5051622;28;20401;-65
2023/12/05 05:40:23;;;;;;;27.13;11.68;;;;;;;-0.06;100.00;92915.22;5051829;28;20048;-67
2023/12/05 05:42:49;;;;;;;22.35;9.25;;;;;;;-0.16;100.00;92913.22;5050239;28;20915;-67
2023/12/05 05:45:16;;;;;;;79.05;31.05;;;;;;;-0.18;100.00;92910.13;5051321;28;20049;-66
2023/12/05 05:47:43;;;;;;;31.73;13.73;;;;;;;-0.19;100.00;92906.66;5050875;28;20053;-68
2023/12/05 05:50:11;;;;;;;22.85;10.07;;;;;;;-0.27;100.00;92913.13;5051514;28;20045;-66
2023/12/05 05:52:38;;;;;;;28.13;12.77;;;;;;;-0.39;100.00;92919.56;5050704;28;20071;-67
2023/12/05 05:55:05;;;;;;;30.02;13.48;;;;;;;-0.49;100.00;92917.53;5051254;28;20056;-67
2023/12/05 05:57:35;;;;;;;35.40;17.45;;;;;;;-0.52;100.00;92921.75;5049712;28;20048;-68
2023/12/05 06:00:03;;;;;;;27.58;11.60;;;;;;;-0.50;100.00;92913.31;5051500;28;20102;-68
2023/12/05 06:02:30;;;;;;;27.15;10.95;;;;;;;-0.44;100.00;92920.69;5050699;28;20448;-68
2023/12/05 06:04:57;;;;;;;24.63;12.52;;;;;;;-0.39;100.00;92922.25;5050029;28;20049;-69
2023/12/05 06:07:24;;;;;;;25.60;11.60;;;;;;;-0.29;100.00;92926.22;5051002;28;20067;-67
2023/12/05 06:09:51;;;;;;;24.15;10.23;;;;;;;-0.26;100.00;92926.25;5050961;28;20045;-68
2023/12/05 06:12:18;;;;;;;22.73;10.13;;;;;;;-0.17;100.00;92923.22;5050097;28;20037;-68
2023/12/05 06:14:44;;;;;;;24.45;10.40;;;;;;;-0.06;100.00;92920.63;5050018;28;20102;-69
2023/12/05 06:17:11;;;;;;;24.77;10.32;;;;;;;-0.01;100.00;92923.75;5051329;28;20041;-71
2023/12/05 06:19:38;;;;;;;30.33;10.75;;;;;;;0.06;100.00;92931.16;5050368;28;20057;-71
2023/12/05 06:22:05;;;;;;;24.90;10.55;;;;;;;0.10;100.00;92931.16;5050727;28;20375;-69
2023/12/05 06:24:32;;;;;;;33.70;13.55;;;;;;;0.14;100.00;92932.75;5049704;28;20105;-70
2023/12/05 06:26:59;;;;;;;27.15;11.45;;;;;;;0.12;100.00;92931.56;5051166;28;20436;-68
2023/12/05 06:29:26;;;;;;;23.25;10.20;;;;;;;0.05;100.00;92937.69;5050360;28;20485;-69
2023/12/05 06:31:53;;;;;;;27.85;12.70;;;;;;;-0.03;100.00;92938.78;5050514;28;20459;-71
2023/12/05 06:34:20;;;;;;;27.75;12.20;;;;;;;-0.09;100.00;92938.34;5049330;28;20040;-69
2023/12/05 06:36:47;;;;;;;31.42;13.45;;;;;;;-0.15;100.00;92942.50;5048064;28;20040;-68
2023/12/05 06:39:13;;;;;;;30.73;12.77;;;;;;;-0.21;100.00;92933.22;5048919;28;20447;-69
2023/12/05 06:41:40;;;;;;;36.90;14.45;;;;;;;-0.28;100.00;92941.22;5050219;28;20413;-67
2023/12/05 06:44:07;;;;;;;28.20;12.27;;;;;;;-0.36;100.00;92942.31;5050556;28;20033;-68
2023/12/05 06:46:34;;;;;;;25.00;11.00;;;;;;;-0.38;100.00;92939.19;5045219;28;20049;-68
2023/12/05 06:49:00;;;;;;;26.60;11.50;;;;;;;-0.43;100.00;92935.69;5045307;28;20045;-68
2023/12/05 06:51:27;;;;;;;20.83;9.68;;;;;;;-0.53;100.00;92933.66;5048890;28;20475;-68
2023/12/05 06:53:55;;;;;;;19.88;9.32;;;;;;;-0.52;100.00;92937.16;5050256;28;20047;-66
2023/12/05 06:56:21;;;;;;;20.58;8.88;;;;;;;-0.50;100.00;92945.66;5049832;28;20045;-67
2023/12/05 06:58:48;;;;;;;24.50;10.20;;;;;;;-0.49;100.00;92950.66;5049118;28;20047;-66
2023/12/05 07:01:15;;;;;;;23.58;9.98;;;;;;;-0.51;100.00;92947.56;5048599;28;20370;-68
2023/12/05 07:03:42;;;;;;;24.60;10.27;;;;;;;-0.52;100.00;92948.72;5036083;28;20044;-67
2023/12/05 07:06:19;;;;;;;27.23;10.50;;;;;;;-0.54;100.00;92950.19;5049520;28;20379;-68
2023/12/05 07:08:46;;;;;;;27.70;11.00;;;;;;;-0.54;100.00;92947.50;5048305;28;20452;-68
2023/12/05 07:11:12;;;;;;;27.20;10.57;;;;;;;-0.49;100.00;92947.19;5049982;28;20045;-68
2023/12/05 07:13:39;;;;;;;27.58;10.43;;;;;;;-0.47;100.00;92956.44;5047480;28;20055;-67
2023/12/05 07:16:06;;;;;;;33.63;14.38;;;;;;;-0.39;100.00;92962.69;5049629;28;20276;-68
2023/12/05 07:18:33;;;;;;;29.77;12.88;;;;;;;-0.36;100.00;92972.75;5047923;28;20052;-68
2023/12/05 07:21:00;;;;;;;29.88;11.55;;;;;;;-0.33;100.00;92968.53;5049417;28;20044;-68
2023/12/05 07:23:27;;;;;;;27.42;11.27;;;;;;;-0.27;100.00;92959.72;5049147;28;20509;-68
2023/12/05 07:25:56;;;;;;;30.95;13.35;;;;;;;-0.20;100.00;92967.13;5048320;28;20067;-67
2023/12/05 07:28:23;;;;;;;24.70;10.15;;;;;;;-0.25;100.00;92960.13;5048293;28;20045;-68
2023/12/05 07:30:50;;;;;;;24.75;10.43;;;;;;;-0.16;100.00;92964.44;5047555;28;20098;-68
2023/12/05 07:33:19;;;;;;;24.23;10.45;;;;;;;-0.02;100.00;92969.97;5049762;28;20048;-67
2023/12/05 07:35:46;;;;;;;24.40;10.05;;;;;;;0.13;100.00;92976.28;5049239;28;20045;-68
2023/12/05 07:38:13;;;;;;;24.23;10.20;;;;;;;0.19;100.00;92978.25;5049684;28;20033;-68
2023/12/05 07:40:40;;;;;;;25.23;10.50;;;;;;;0.28;100.00;92983.38;5048815;28;20060;-68
2023/12/05 07:43:07;;;;;;;23.88;10.15;;;;;;;0.46;100.00;92977.31;5049559;28;20067;-67
2023/12/05 07:45:34;;;;;;;22.08;10.30;;;;;;;0.71;100.00;92977.50;5048007;28;20049;-68
2023/12/05 07:48:02;;;;;;;23.25;9.73;;;;;;;0.71;100.00;92975.56;5048815;28;20052;-68
2023/12/05 07:50:29;;;;;;;23.30;9.80;;;;;;;1.05;100.00;92980.00;5049172;28;20052;-68
2023/12/05 07:52:55;;;;;;;23.10;9.93;;;;;;;1.24;100.00;92979.72;5030976;28;20401;-69
2023/12/05 07:55:23;;;;;;;22.75;9.60;;;;;;;1.37;100.00;92989.06;5049695;28;20555;-69
2023/12/05 07:57:50;;;;;;;23.02;10.02;;;;;;;1.78;100.00;92996.16;5048193;28;20852;-68
2023/12/05 08:00:18;;;;;;;22.75;9.55;;;;;;;2.60;100.00;92987.38;5049219;28;20053;-69
2023/12/05 08:02:46;;;;;;;21.65;9.90;;;;;;;3.69;100.00;92994.09;5048777;28;20060;-67
2023/12/05 08:05:13;;;;;;;19.75;9.77;;;;;;;4.21;100.00;92994.22;5049338;28;20037;-69
2023/12/05 08:07:40;;;;;;;21.93;10.47;;;;;;;3.31;100.00;92994.59;5048262;28;20053;-69
2023/12/05 08:10:08;;;;;;;21.13;10.52;;;;;;;4.04;100.00;92997.78;5049280;28;20075;-69
2023/12/05 08:12:35;;;;;;;28.13;13.13;;;;;;;6.40;100.00;92992.00;5046598;28;20519;-69
2023/12/05 08:15:03;;;;;;;18.73;10.10;;;;;;;7.27;100.00;93007.78;5048961;28;20415;-70
2023/12/05 08:17:30;;;;;;;18.23;10.00;;;;;;;8.05;100.00;92991.88;5048489;28;20048;-70
2023/12/05 08:19:57;;;;;;;15.73;8.67;;;;;;;7.80;100.00;93001.31;5048683;28;20452;-70
2023/12/05 08:22:25;;;;;;;17.65;10.23;;;;;;;8.54;100.00;93002.19;5048310;28;20075;-68
2023/12/05 08:24:52;;;;;;;14.07;8.55;;;;;;;8.83;97.74;92994.09;5049126;28;20037;-68
2023/12/05 08:27:19;;;;;;;13.68;7.97;;;;;;;7.76;100.00;93008.06;5048860;28;20049;-69
2023/12/05 08:29:46;;;;;;;12.40;7.40;;;;;;;6.14;100.00;93007.16;5048608;28;20492;-69
2023/12/05 08:32:12;;;;;;;13.83;7.13;;;;;;;4.28;100.00;93005.00;5048874;28;20049;-69
2023/12/05 08:34:40;;;;;;;38.92;7.90;;;;;;;3.79;100.00;93014.97;5046736;28;20041;-69
2023/12/05 08:37:07;;;;;;;14.32;7.57;;;;;;;3.31;100.00;93021.72;5049052;28;20047;-69
2023/12/05 08:39:34;;;;;;;15.55;7.30;;;;;;;3.25;100.00;93012.44;5047559;28;20100;-69
2023/12/05 08:42:02;;;;;;;13.65;7.13;;;;;;;2.98;100.00;93020.25;5048693;28;20049;-69
2023/12/05 08:44:30;;;;;;;13.20;6.97;;;;;;;2.75;100.00;93021.41;5048392;28;20059;-68
2023/12/05 08:46:57;;;;;;;14.20;6.47;;;;;;;2.42;100.00;93019.09;5048638;28;20037;-68
2023/12/05 08:49:24;;;;;;;18.05;7.55;;;;;;;2.22;100.00;93022.16;5047297;28;20039;-64
2023/12/05 08:51:51;;;;;;;12.70;6.35;;;;;;;2.11;100.00;93030.25;5048463;28;20049;-68
2023/12/05 08:54:18;;;;;;;16.38;6.75;;;;;;;1.77;100.00;93021.63;5048913;28;20117;-68
2023/12/05 08:56:45;;;;;;;15.30;7.03;;;;;;;1.98;100.00;93032.53;5048145;28;20406;-67
2023/12/05 08:59:11;;;;;;;13.52;6.30;;;;;;;1.84;100.00;93026.31;5048883;28;20048;-68
2023/12/05 09:01:38;;;;;;;12.88;6.60;;;;;;;1.89;100.00;93024.00;5050899;28;20041;-69
2023/12/05 09:04:05;;;;;;;13.18;7.03;;;;;;;2.03;100.00;93012.44;5052740;28;20045;-68
2023/12/05 09:06:32;;;;;;;15.15;7.22;;;;;;;2.14;100.00;93015.94;5051725;28;20492;-68
2023/12/05 09:08:59;;;;;;;17.77;9.20;;;;;;;2.24;100.00;93019.06;5051148;28;20044;-68
2023/12/05 09:11:26;;;;;;;14.98;6.57;;;;;;;2.10;100.00;93023.28;5038712;28;20067;-67
2023/12/05 09:13:53;;;;;;;13.63;6.10;;;;;;;2.06;100.00;93019.03;5052076;28;20302;-68
2023/12/05 09:16:20;;;;;;;12.63;6.07;;;;;;;2.11;100.00;93018.63;5052493;28;20055;-68
2023/12/05 09:18:47;;;;;;;16.42;7.00;;;;;;;2.07;100.00;93017.84;5051706;28;20103;-68
2023/12/05 09:21:14;;;;;;;11.23;4.53;;;;;;;2.26;100.00;93022.16;5051862;28;20063;-68
2023/12/05 09:23:40;;;;;;;8.43;3.78;;;;;;;2.11;100.00;93029.47;5051334;28;20047;-68
2023/12/05 09:26:07;;;;;;;10.40;4.30;;;;;;;2.08;100.00;93030.25;5051699;28;20049;-68
2023/12/05 09:28:34;;;;;;;7.35;3.55;;;;;;;2.16;100.00;93031.81;5050237;28;20041;-68
2023/12/05 09:31:01;;;;;;;8.18;4.10;;;;;;;2.23;100.00;93036.44;5038852;28;20067;-68
2023/12/05 09:33:28;;;;;;;7.18;3.28;;;;;;;2.26;100.00;93036.47;5049940;28;20536;-68
2023/12/05 09:35:55;;;;;;;6.40;3.33;;;;;;;2.20;100.00;93038.00;5051852;28;20045;-68
2023/12/05 09:38:21;;;;;;;5.50;2.10;;;;;;;2.34;100.00;93029.91;5051010;28;20029;-67
2023/12/05 09:40:51;;;;;;;4.18;2.20;;;;;;;2.60;100.00;93036.13;5047813;28;20043;-68
2023/12/05 09:43:23;;;;;;;5.65;2.47;;;;;;;2.75;100.00;93031.47;5052022;28;20410;-68
2023/12/05 09:46:00;;;;;;;5.87;2.70;;;;;;;2.79;100.00;93030.28;5046703;28;20288;-68
2023/12/05 09:48:37;;;;;;;7.00;2.00;;;;;;;3.03;100.00;93030.69;5051160;28;20421;-68
2023/12/05 09:51:08;;;;;;;6.05;2.22;;;;;;;3.30;100.00;93028.31;5051583;28;20041;-67
2023/12/05 09:53:35;;;;;;;5.72;2.40;;;;;;;4.44;100.00;93017.34;5050776;28;20123;-68
2023/12/05 09:56:02;;;;;;;4.97;2.30;;;;;;;4.40;100.00;93017.34;5051111;28;20043;-68
2023/12/05 09:58:29;;;;;;;6.00;2.73;;;;;;;4.21;100.00;93024.09;5050856;28;20037;-68
2023/12/05 10:00:56;;;;;;;10.15;3.80;;;;;;;4.68;100.00;93013.66;5049638;28;20045;-67
2023/12/05 10:03:24;;;;;;;5.57;2.80;;;;;;;5.98;100.00;93005.78;5051361;28;20405;-68
2023/12/05 10:05:53;;;;;;;5.90;2.30;;;;;;;8.44;100.00;93014.91;5050063;28;20896;-69
2023/12/05 10:08:20;;;;;;;9.65;3.13;;;;;;;6.97;100.00;93015.66;5051458;28;20033;-67
2023/12/05 10:10:48;;;;;;;7.77;3.03;;;;;;;5.54;100.00;93009.41;5037896;28;20048;-69
2023/12/05 10:13:17;;;;;;;6.80;2.85;;;;;;;5.51;100.00;93004.75;5049808;28;20041;-69
2023/12/05 10:15:44;;;;;;;5.97;2.97;;;;;;;5.23;100.00;93011.25;5050465;28;20886;-68
2023/12/05 10:18:11;;;;;;;8.30;3.40;;;;;;;5.06;100.00;93000.16;5051128;28;20086;-68
2023/12/05 10:20:38;;;;;;;7.80;3.60;;;;;;;4.55;100.00;93016.09;5049129;28;20041;-69
2023/12/05 10:23:05;;;;;;;10.37;4.00;;;;;;;4.10;100.00;93015.97;5049542;28;20033;-68
2023/12/05 10:25:32;;;;;;;7.15;3.13;;;;;;;4.26;100.00;93004.63;5050456;28;20095;-68
2023/12/05 10:28:05;;;;;;;7.45;3.78;;;;;;;4.50;100.00;93016.50;5049975;28;20040;-68
2023/12/05 10:30:34;;;;;;;7.03;3.33;;;;;;;4.52;100.00;93011.44;5048919;28;20040;-68
2023/12/05 10:33:10;;;;;;;8.65;3.53;;;;;;;4.38;100.00;93020.47;5050900;28;20040;-69
2023/12/05 10:35:38;;;;;;;14.20;5.10;;;;;;;4.40;100.00;93022.78;5050420;28;20405;-68
2023/12/05 10:38:10;;;;;;;7.03;3.30;;;;;;;3.92;100.00;93018.78;5051161;28;20037;-68
2023/12/05 10:40:54;;;;;;;7.45;3.95;;;;;;;4.06;100.00;93017.94;5047943;28;20043;-68
2023/12/05 10:43:23;;;;;;;6.38;3.60;;;;;;;3.58;100.00;93013.09;5050583;28;20037;-68
2023/12/05 10:45:51;;;;;;;6.85;3.58;;;;;;;3.22;100.00;93015.94;5050033;28;21186;-68
2023/12/05 10:48:18;;;;;;;8.37;4.17;;;;;;;3.32;100.00;93014.34;5050437;28;20041;-68
2023/12/05 10:50:48;;;;;;;11.55;4.40;;;;;;;3.39;100.00;93006.22;5050084;28;20503;-68
2023/12/05 10:53:15;;;;;;;8.05;4.25;;;;;;;3.30;100.00;92995.78;5050183;28;20494;-68
2023/12/05 10:55:42;;;;;;;8.75;3.45;;;;;;;3.79;100.00;92990.56;5049604;28;20250;-68
2023/12/05 10:58:09;;;;;;;7.50;4.10;;;;;;;3.95;100.00;93006.38;5050157;28;20036;-68
2023/12/05 11:00:37;;;;;;;8.13;4.20;;;;;;;4.18;100.00;92992.28;5049711;28;20474;-68
2023/12/05 11:03:04;;;;;;;9.18;4.28;;;;;;;4.30;100.00;92994.53;5050006;28;20041;-67
2023/12/05 11:05:32;;;;;;;8.10;4.00;;;;;;;5.70;100.00;92978.91;5048264;28;20045;-67
2023/12/05 11:08:00;;;;;;;10.43;4.50;;;;;;;5.70;100.00;92974.22;5050083;28;20501;-68
2023/12/05 11:10:28;;;;;;;12.95;5.30;;;;;;;7.79;100.00;92979.91;5049572;28;20049;-68
2023/12/05 11:12:58;;;;;;;8.20;4.43;;;;;;;7.31;100.00;92978.47;5049962;28;20044;-69
2023/12/05 11:15:31;;;;;;;7.65;4.28;;;;;;;7.83;100.00;92982.56;5049469;28;20040;-68
2023/12/05 11:18:00;;;;;;;8.82;4.50;;;;;;;7.62;100.00;92976.31;5049969;28;20045;-69
2023/12/05 11:20:37;;;;;;;6.95;4.40;;;;;;;7.55;100.00;92971.78;5049432;28;20067;-69